sensor_id;sensor_type;location;lat;lon;timestamp;temperature;humidity
18317;DHT22;9284;52.298;21.164;2023-06-10T00:01:20;17.80;45.60
18317;DHT22;9284;52.298;21.164;2023-06-10T00:07:23;17.70;21.90
18317;DHT22;9284;52.298;21.164;2023-06-10T00:10:25;17.60;21.90
18317;DHT22;9284;52.298;21.164;2023-06-10T00:13:29;17.50;20.00
18317;DHT22;9284;52.298;21.164;2023-06-10T00:16:09;17.50;16.40
18317;DHT22;9284;52.298;21.164;2023-06-10T00:19:15;17.40;18.30
18317;DHT22;9284;52.298;21.164;2023-06-10T00:21:58;17.30;14.90
18317;DHT22;9284;52.298;21.164;2023-06-10T00:25:20;17.30;16.90
18317;DHT22;9284;52.298;21.164;2023-06-10T00:28:18;17.20;15.00
18317;DHT22;9284;52.298;21.164;2023-06-10T00:30:58;17.10;2.90
18317;DHT22;9284;52.298;21.164;2023-06-10T00:36:35;17.10;1.00
18317;DHT22;9284;52.298;21.164;2023-06-10T00:39:20;17.00;1.00
18317;DHT22;9284;52.298;21.164;2023-06-10T00:48:25;17.00;1.00
18317;DHT22;9284;52.298;21.164;2023-06-10T00:51:26;17.00;1.00
18317;DHT22;9284;52.298;21.164;2023-06-10T00:54:56;17.00;1.00
18317;DHT22;9284;52.298;21.164;2023-06-10T00:57:54;17.00;1.00
18317;DHT22;9284;52.298;21.164;2023-06-10T01:00:49;17.00;1.00
18317;DHT22;9284;52.298;21.164;2023-06-10T01:12:22;17.10;1.00
18317;DHT22;9284;52.298;21.164;2023-06-10T01:15:46;17.10;1.00
18317;DHT22;9284;52.298;21.164;2023-06-10T01:20:32;17.00;1.00
18317;DHT22;9284;52.298;21.164;2023-06-10T01:23:05;17.00;1.00
18317;DHT22;9284;52.298;21.164;2023-06-10T01:57:34;16.40;1.00
18317;DHT22;9284;52.298;21.164;2023-06-10T02:00:59;16.40;1.00
18317;DHT22;9284;52.298;21.164;2023-06-10T02:04:27;16.40;1.00
18317;DHT22;9284;52.298;21.164;2023-06-10T02:28:20;16.20;1.00
18317;DHT22;9284;52.298;21.164;2023-06-10T02:31:26;16.30;1.00
18317;DHT22;9284;52.298;21.164;2023-06-10T02:37:54;16.30;1.00
18317;DHT22;9284;52.298;21.164;2023-06-10T02:38:47;16.30;1.00
18317;DHT22;9284;52.298;21.164;2023-06-10T02:42:37;16.20;1.00
18317;DHT22;9284;52.298;21.164;2023-06-10T02:46:05;16.20;1.00
18317;DHT22;9284;52.298;21.164;2023-06-10T02:49:43;16.30;1.00
18317;DHT22;9284;52.298;21.164;2023-06-10T02:53:23;16.30;1.00
18317;DHT22;9284;52.298;21.164;2023-06-10T02:56:43;16.20;1.00
18317;DHT22;9284;52.298;21.164;2023-06-10T03:00:01;16.30;1.00
18317;DHT22;9284;52.298;21.164;2023-06-10T03:07:35;16.30;1.00
18317;DHT22;9284;52.298;21.164;2023-06-10T03:10:57;16.30;1.00
18317;DHT22;9284;52.298;21.164;2023-06-10T03:17:39;16.30;1.00
18317;DHT22;9284;52.298;21.164;2023-06-10T03:56:18;16.90;1.00
18317;DHT22;9284;52.298;21.164;2023-06-10T04:03:36;16.80;1.00
18317;DHT22;9284;52.298;21.164;2023-06-10T04:07:23;16.90;1.00
18317;DHT22;9284;52.298;21.164;2023-06-10T04:56:03;17.90;1.00
18317;DHT22;9284;52.298;21.164;2023-06-10T04:59:44;18.00;1.00
18317;DHT22;9284;52.298;21.164;2023-06-10T05:03:41;18.10;1.00
18317;DHT22;9284;52.298;21.164;2023-06-10T05:06:39;18.10;1.00
18317;DHT22;9284;52.298;21.164;2023-06-10T05:24:36;18.00;1.00
18317;DHT22;9284;52.298;21.164;2023-06-10T05:38:36;18.10;1.00
18317;DHT22;9284;52.298;21.164;2023-06-10T05:45:46;18.40;1.00
18317;DHT22;9284;52.298;21.164;2023-06-10T05:49:03;18.70;1.00
18317;DHT22;9284;52.298;21.164;2023-06-10T05:52:56;18.80;1.00
18317;DHT22;9284;52.298;21.164;2023-06-10T06:52:52;25.90;1.00
18317;DHT22;9284;52.298;21.164;2023-06-10T06:57:02;25.70;1.00
18317;DHT22;9284;52.298;21.164;2023-06-10T06:59:58;26.10;1.00
18317;DHT22;9284;52.298;21.164;2023-06-10T07:02:58;26.20;1.00
18317;DHT22;9284;52.298;21.164;2023-06-10T07:06:22;26.30;1.00
18317;DHT22;9284;52.298;21.164;2023-06-10T07:09:19;27.10;1.00
18317;DHT22;9284;52.298;21.164;2023-06-10T07:13:16;26.80;1.00
18317;DHT22;9284;52.298;21.164;2023-06-10T07:17:13;26.80;1.00
18317;DHT22;9284;52.298;21.164;2023-06-10T07:20:18;27.80;1.00
18317;DHT22;9284;52.298;21.164;2023-06-10T07:23:14;28.60;1.00
18317;DHT22;9284;52.298;21.164;2023-06-10T07:33:21;28.50;1.00
18317;DHT22;9284;52.298;21.164;2023-06-10T07:36:24;28.20;1.00
18317;DHT22;9284;52.298;21.164;2023-06-10T07:39:10;28.30;1.00
18317;DHT22;9284;52.298;21.164;2023-06-10T07:41:51;27.70;1.00
18317;DHT22;9284;52.298;21.164;2023-06-10T07:45:24;27.80;1.00
18317;DHT22;9284;52.298;21.164;2023-06-10T07:48:00;27.90;1.00
18317;DHT22;9284;52.298;21.164;2023-06-10T07:51:09;28.40;1.00
18317;DHT22;9284;52.298;21.164;2023-06-10T07:53:45;28.30;1.00
18317;DHT22;9284;52.298;21.164;2023-06-10T07:56:54;27.70;1.00
18317;DHT22;9284;52.298;21.164;2023-06-10T07:59:37;27.70;1.00
18317;DHT22;9284;52.298;21.164;2023-06-10T08:02:35;27.70;1.00
18317;DHT22;9284;52.298;21.164;2023-06-10T08:05:49;28.20;1.00
18317;DHT22;9284;52.298;21.164;2023-06-10T08:08:28;28.30;1.00
18317;DHT22;9284;52.298;21.164;2023-06-10T08:11:26;28.70;1.00
18317;DHT22;9284;52.298;21.164;2023-06-10T08:14:21;29.00;1.00
18317;DHT22;9284;52.298;21.164;2023-06-10T08:17:25;29.10;1.00
18317;DHT22;9284;52.298;21.164;2023-06-10T08:20:11;28.70;1.00
18317;DHT22;9284;52.298;21.164;2023-06-10T08:23:08;28.30;1.00
18317;DHT22;9284;52.298;21.164;2023-06-10T08:26:10;28.20;1.00
18317;DHT22;9284;52.298;21.164;2023-06-10T08:29:14;27.90;1.00
18317;DHT22;9284;52.298;21.164;2023-06-10T08:32:16;27.80;1.00
18317;DHT22;9284;52.298;21.164;2023-06-10T08:35:15;27.80;1.00
18317;DHT22;9284;52.298;21.164;2023-06-10T08:38:38;27.30;1.00
18317;DHT22;9284;52.298;21.164;2023-06-10T08:42:03;27.00;1.00
18317;DHT22;9284;52.298;21.164;2023-06-10T08:45:17;27.60;1.00
18317;DHT22;9284;52.298;21.164;2023-06-10T08:48:12;27.80;1.00
18317;DHT22;9284;52.298;21.164;2023-06-10T08:51:11;28.60;1.00
18317;DHT22;9284;52.298;21.164;2023-06-10T08:54:21;28.20;1.00
18317;DHT22;9284;52.298;21.164;2023-06-10T08:57:17;28.00;1.00
18317;DHT22;9284;52.298;21.164;2023-06-10T09:00:07;28.10;1.00
18317;DHT22;9284;52.298;21.164;2023-06-10T09:03:09;28.50;1.00
18317;DHT22;9284;52.298;21.164;2023-06-10T09:06:13;28.40;1.00
18317;DHT22;9284;52.298;21.164;2023-06-10T09:09:29;28.10;1.00
18317;DHT22;9284;52.298;21.164;2023-06-10T09:12:53;28.30;1.00
18317;DHT22;9284;52.298;21.164;2023-06-10T09:15:51;27.90;1.00
18317;DHT22;9284;52.298;21.164;2023-06-10T09:19:10;27.60;1.00
18317;DHT22;9284;52.298;21.164;2023-06-10T09:22:35;27.60;1.00
18317;DHT22;9284;52.298;21.164;2023-06-10T09:25:57;27.00;1.00
18317;DHT22;9284;52.298;21.164;2023-06-10T09:29:04;27.70;1.00
18317;DHT22;9284;52.298;21.164;2023-06-10T09:32:56;27.80;1.00
18317;DHT22;9284;52.298;21.164;2023-06-10T09:38:34;28.10;1.00
18317;DHT22;9284;52.298;21.164;2023-06-10T09:41:19;27.80;1.00
18317;DHT22;9284;52.298;21.164;2023-06-10T09:44:16;27.50;1.00
18317;DHT22;9284;52.298;21.164;2023-06-10T09:47:15;27.80;1.00
18317;DHT22;9284;52.298;21.164;2023-06-10T09:50:13;27.40;1.00
18317;DHT22;9284;52.298;21.164;2023-06-10T09:52:52;27.50;1.00
18317;DHT22;9284;52.298;21.164;2023-06-10T09:55:59;27.50;1.00
18317;DHT22;9284;52.298;21.164;2023-06-10T09:58:42;27.30;1.00
18317;DHT22;9284;52.298;21.164;2023-06-10T10:01:21;27.60;1.00
18317;DHT22;9284;52.298;21.164;2023-06-10T10:04:23;27.70;1.00
18317;DHT22;9284;52.298;21.164;2023-06-10T10:07:23;27.50;1.00
18317;DHT22;9284;52.298;21.164;2023-06-10T10:10:00;27.20;1.00
18317;DHT22;9284;52.298;21.164;2023-06-10T10:12:59;27.20;1.00
18317;DHT22;9284;52.298;21.164;2023-06-10T10:15:54;27.10;1.00
18317;DHT22;9284;52.298;21.164;2023-06-10T10:18:54;26.70;1.00
18317;DHT22;9284;52.298;21.164;2023-06-10T10:21:45;26.80;1.00
18317;DHT22;9284;52.298;21.164;2023-06-10T10:24:52;26.70;1.00
18317;DHT22;9284;52.298;21.164;2023-06-10T10:27:51;26.80;1.00
18317;DHT22;9284;52.298;21.164;2023-06-10T10:30:39;27.00;1.00
18317;DHT22;9284;52.298;21.164;2023-06-10T10:33:51;26.50;1.00
18317;DHT22;9284;52.298;21.164;2023-06-10T10:37:00;27.00;1.00
18317;DHT22;9284;52.298;21.164;2023-06-10T10:42:08;27.20;1.00
18317;DHT22;9284;52.298;21.164;2023-06-10T10:43:55;27.10;1.00
18317;DHT22;9284;52.298;21.164;2023-06-10T10:47:26;26.70;1.00
18317;DHT22;9284;52.298;21.164;2023-06-10T10:57:23;27.90;1.00
18317;DHT22;9284;52.298;21.164;2023-06-10T11:00:30;28.00;1.00
18317;DHT22;9284;52.298;21.164;2023-06-10T11:04:03;28.20;1.00
18317;DHT22;9284;52.298;21.164;2023-06-10T11:07:29;28.00;1.00
18317;DHT22;9284;52.298;21.164;2023-06-10T11:10:03;27.60;1.00
18317;DHT22;9284;52.298;21.164;2023-06-10T11:16:08;27.50;1.00
18317;DHT22;9284;52.298;21.164;2023-06-10T11:19:09;27.30;1.00
18317;DHT22;9284;52.298;21.164;2023-06-10T11:22:28;27.10;1.00
18317;DHT22;9284;52.298;21.164;2023-06-10T11:26:21;27.50;1.00
18317;DHT22;9284;52.298;21.164;2023-06-10T11:29:06;27.00;1.00
18317;DHT22;9284;52.298;21.164;2023-06-10T11:31:57;26.90;1.00
18317;DHT22;9284;52.298;21.164;2023-06-10T11:35:04;26.30;1.00
18317;DHT22;9284;52.298;21.164;2023-06-10T11:37:44;26.40;1.00
18317;DHT22;9284;52.298;21.164;2023-06-10T11:40:29;26.70;1.00
18317;DHT22;9284;52.298;21.164;2023-06-10T11:43:16;26.80;1.00
18317;DHT22;9284;52.298;21.164;2023-06-10T11:46:12;26.70;1.00
18317;DHT22;9284;52.298;21.164;2023-06-10T11:48:55;27.00;1.00
18317;DHT22;9284;52.298;21.164;2023-06-10T11:51:46;27.00;1.00
18317;DHT22;9284;52.298;21.164;2023-06-10T11:55:12;26.80;1.00
18317;DHT22;9284;52.298;21.164;2023-06-10T11:59:01;26.70;1.00
18317;DHT22;9284;52.298;21.164;2023-06-10T12:02:27;26.70;1.00
18317;DHT22;9284;52.298;21.164;2023-06-10T12:05:20;26.70;1.00
18317;DHT22;9284;52.298;21.164;2023-06-10T12:08:36;26.80;1.00
18317;DHT22;9284;52.298;21.164;2023-06-10T12:12:00;27.20;1.00
18317;DHT22;9284;52.298;21.164;2023-06-10T12:14:55;26.90;1.00
18317;DHT22;9284;52.298;21.164;2023-06-10T12:17:55;26.20;1.00
18317;DHT22;9284;52.298;21.164;2023-06-10T12:21:45;25.90;1.00
18317;DHT22;9284;52.298;21.164;2023-06-10T12:24:59;26.10;1.00
18317;DHT22;9284;52.298;21.164;2023-06-10T12:27:58;26.00;1.00
18317;DHT22;9284;52.298;21.164;2023-06-10T12:31:07;25.60;1.00
18317;DHT22;9284;52.298;21.164;2023-06-10T12:34:23;25.90;1.00
18317;DHT22;9284;52.298;21.164;2023-06-10T12:37:27;25.70;1.00
18317;DHT22;9284;52.298;21.164;2023-06-10T12:40:45;25.90;1.00
18317;DHT22;9284;52.298;21.164;2023-06-10T12:43:27;26.00;1.00
18317;DHT22;9284;52.298;21.164;2023-06-10T12:46:56;26.30;1.00
18317;DHT22;9284;52.298;21.164;2023-06-10T12:50:09;26.10;1.00
18317;DHT22;9284;52.298;21.164;2023-06-10T12:56:38;25.60;1.00
18317;DHT22;9284;52.298;21.164;2023-06-10T12:59:59;25.10;1.00
18317;DHT22;9284;52.298;21.164;2023-06-10T13:03:07;25.20;1.00
18317;DHT22;9284;52.298;21.164;2023-06-10T13:06:29;25.50;1.00
18317;DHT22;9284;52.298;21.164;2023-06-10T13:09:15;25.90;1.00
18317;DHT22;9284;52.298;21.164;2023-06-10T13:11:51;26.40;1.00
18317;DHT22;9284;52.298;21.164;2023-06-10T13:14:28;26.40;1.00
18317;DHT22;9284;52.298;21.164;2023-06-10T13:17:28;25.90;1.00
18317;DHT22;9284;52.298;21.164;2023-06-10T13:20:44;25.40;1.00
18317;DHT22;9284;52.298;21.164;2023-06-10T13:24:02;25.10;1.00
18317;DHT22;9284;52.298;21.164;2023-06-10T13:26:42;25.50;1.00
18317;DHT22;9284;52.298;21.164;2023-06-10T13:29:54;25.80;1.00
18317;DHT22;9284;52.298;21.164;2023-06-10T13:32:43;25.90;1.00
18317;DHT22;9284;52.298;21.164;2023-06-10T13:35:22;25.60;1.00
18317;DHT22;9284;52.298;21.164;2023-06-10T13:38:14;25.40;1.00
18317;DHT22;9284;52.298;21.164;2023-06-10T13:41:14;25.70;1.00
18317;DHT22;9284;52.298;21.164;2023-06-10T13:43:58;26.00;1.00
18317;DHT22;9284;52.298;21.164;2023-06-10T13:46:40;26.00;1.00
18317;DHT22;9284;52.298;21.164;2023-06-10T13:49:28;25.90;1.00
18317;DHT22;9284;52.298;21.164;2023-06-10T13:52:13;25.60;1.00
18317;DHT22;9284;52.298;21.164;2023-06-10T13:55:16;25.70;1.00
18317;DHT22;9284;52.298;21.164;2023-06-10T13:57:55;25.90;1.00
18317;DHT22;9284;52.298;21.164;2023-06-10T14:00:26;26.10;1.00
18317;DHT22;9284;52.298;21.164;2023-06-10T14:03:14;26.40;1.00
18317;DHT22;9284;52.298;21.164;2023-06-10T14:09:22;25.90;1.00
18317;DHT22;9284;52.298;21.164;2023-06-10T14:16:02;26.10;1.00
18317;DHT22;9284;52.298;21.164;2023-06-10T14:19:15;26.30;1.00
18317;DHT22;9284;52.298;21.164;2023-06-10T14:21:57;26.40;1.00
18317;DHT22;9284;52.298;21.164;2023-06-10T14:24:55;26.10;1.00
18317;DHT22;9284;52.298;21.164;2023-06-10T14:27:35;25.90;1.00
18317;DHT22;9284;52.298;21.164;2023-06-10T14:30:34;25.90;1.00
18317;DHT22;9284;52.298;21.164;2023-06-10T14:33:28;25.60;1.00
18317;DHT22;9284;52.298;21.164;2023-06-10T14:36:37;25.10;1.00
18317;DHT22;9284;52.298;21.164;2023-06-10T14:39:31;24.70;1.00
18317;DHT22;9284;52.298;21.164;2023-06-10T14:42:37;24.80;1.00
18317;DHT22;9284;52.298;21.164;2023-06-10T14:45:17;25.00;1.00
18317;DHT22;9284;52.298;21.164;2023-06-10T14:48:27;25.20;1.00
18317;DHT22;9284;52.298;21.164;2023-06-10T14:51:12;25.30;1.00
18317;DHT22;9284;52.298;21.164;2023-06-10T14:54:19;25.30;1.00
18317;DHT22;9284;52.298;21.164;2023-06-10T14:57:27;25.00;1.00
18317;DHT22;9284;52.298;21.164;2023-06-10T15:00:04;24.80;1.00
18317;DHT22;9284;52.298;21.164;2023-06-10T15:19:04;24.60;1.00
18317;DHT22;9284;52.298;21.164;2023-06-10T15:22:37;24.90;1.00
18317;DHT22;9284;52.298;21.164;2023-06-10T15:27:54;25.10;1.00
18317;DHT22;9284;52.298;21.164;2023-06-10T15:29:20;25.60;1.00
18317;DHT22;9284;52.298;21.164;2023-06-10T15:32:33;25.60;1.00
18317;DHT22;9284;52.298;21.164;2023-06-10T15:40:02;25.00;1.00
18317;DHT22;9284;52.298;21.164;2023-06-10T15:43:02;24.40;1.00
18317;DHT22;9284;52.298;21.164;2023-06-10T15:46:32;24.10;1.00
18317;DHT22;9284;52.298;21.164;2023-06-10T15:51:16;24.00;1.00
18317;DHT22;9284;52.298;21.164;2023-06-10T15:53:51;24.20;1.00
18317;DHT22;9284;52.298;21.164;2023-06-10T15:57:19;24.50;1.00
18317;DHT22;9284;52.298;21.164;2023-06-10T16:00:52;24.30;1.00
18317;DHT22;9284;52.298;21.164;2023-06-10T16:03:55;24.20;1.00
18317;DHT22;9284;52.298;21.164;2023-06-10T16:07:29;24.10;1.00
18317;DHT22;9284;52.298;21.164;2023-06-10T16:10:13;24.10;1.00
18317;DHT22;9284;52.298;21.164;2023-06-10T16:13:55;24.20;1.00
18317;DHT22;9284;52.298;21.164;2023-06-10T16:17:02;24.30;1.00
18317;DHT22;9284;52.298;21.164;2023-06-10T16:20:20;24.60;1.00
18317;DHT22;9284;52.298;21.164;2023-06-10T16:23:20;24.50;1.00
18317;DHT22;9284;52.298;21.164;2023-06-10T16:26:03;24.40;1.00
18317;DHT22;9284;52.298;21.164;2023-06-10T16:29:01;24.30;1.00
18317;DHT22;9284;52.298;21.164;2023-06-10T16:32:19;24.20;1.00
18317;DHT22;9284;52.298;21.164;2023-06-10T16:35:30;24.20;1.00
18317;DHT22;9284;52.298;21.164;2023-06-10T16:39:10;24.20;1.00
18317;DHT22;9284;52.298;21.164;2023-06-10T16:43:36;24.20;1.00
18317;DHT22;9284;52.298;21.164;2023-06-10T16:46:09;24.10;1.00
18317;DHT22;9284;52.298;21.164;2023-06-10T16:50:03;24.10;1.00
18317;DHT22;9284;52.298;21.164;2023-06-10T16:55:50;23.70;1.00
18317;DHT22;9284;52.298;21.164;2023-06-10T16:59:12;23.50;1.00
18317;DHT22;9284;52.298;21.164;2023-06-10T17:02:54;23.40;1.00
18317;DHT22;9284;52.298;21.164;2023-06-10T17:05:49;23.20;1.00
18317;DHT22;9284;52.298;21.164;2023-06-10T17:09:14;23.20;1.00
18317;DHT22;9284;52.298;21.164;2023-06-10T17:23:06;23.20;1.00
18317;DHT22;9284;52.298;21.164;2023-06-10T17:26:09;23.20;1.00
18317;DHT22;9284;52.298;21.164;2023-06-10T17:29:24;23.10;1.00
18317;DHT22;9284;52.298;21.164;2023-06-10T17:33:03;23.10;1.00
18317;DHT22;9284;52.298;21.164;2023-06-10T17:39:48;22.90;1.00
18317;DHT22;9284;52.298;21.164;2023-06-10T17:45:53;22.80;1.00
18317;DHT22;9284;52.298;21.164;2023-06-10T17:49:13;22.70;1.00
18317;DHT22;9284;52.298;21.164;2023-06-10T17:52:43;22.70;1.00
18317;DHT22;9284;52.298;21.164;2023-06-10T17:56:12;22.60;1.00
18317;DHT22;9284;52.298;21.164;2023-06-10T17:59:29;22.60;1.00
18317;DHT22;9284;52.298;21.164;2023-06-10T18:17:29;21.90;1.00
18317;DHT22;9284;52.298;21.164;2023-06-10T18:20:46;21.60;1.00
18317;DHT22;9284;52.298;21.164;2023-06-10T18:23:50;21.40;1.00
18317;DHT22;9284;52.298;21.164;2023-06-10T18:27:15;21.30;1.00
18317;DHT22;9284;52.298;21.164;2023-06-10T18:31:14;21.20;1.00
18317;DHT22;9284;52.298;21.164;2023-06-10T18:41:41;20.80;1.00
18317;DHT22;9284;52.298;21.164;2023-06-10T18:45:27;20.70;1.00
18317;DHT22;9284;52.298;21.164;2023-06-10T18:48:20;20.60;1.00
18317;DHT22;9284;52.298;21.164;2023-06-10T18:51:58;20.50;1.00
18317;DHT22;9284;52.298;21.164;2023-06-10T18:55:41;20.30;1.00
18317;DHT22;9284;52.298;21.164;2023-06-10T19:02:38;20.00;1.00
18317;DHT22;9284;52.298;21.164;2023-06-10T19:05:35;19.90;1.00
18317;DHT22;9284;52.298;21.164;2023-06-10T19:13:10;19.70;1.00
18317;DHT22;9284;52.298;21.164;2023-06-10T19:16:24;19.60;1.00
18317;DHT22;9284;52.298;21.164;2023-06-10T19:20:57;19.50;1.00
18317;DHT22;9284;52.298;21.164;2023-06-10T19:23:24;19.40;1.00
18317;DHT22;9284;52.298;21.164;2023-06-10T19:27:11;19.40;1.00
18317;DHT22;9284;52.298;21.164;2023-06-10T19:30:33;19.10;1.00
18317;DHT22;9284;52.298;21.164;2023-06-10T19:44:26;18.70;55.40
18317;DHT22;9284;52.298;21.164;2023-06-10T19:47:50;18.50;80.50
18317;DHT22;9284;52.298;21.164;2023-06-10T19:55:46;18.30;99.90
18317;DHT22;9284;52.298;21.164;2023-06-10T19:59:19;18.20;99.90
18317;DHT22;9284;52.298;21.164;2023-06-10T20:08:34;18.00;99.90
18317;DHT22;9284;52.298;21.164;2023-06-10T20:10:19;17.90;99.90
18317;DHT22;9284;52.298;21.164;2023-06-10T20:16:41;17.70;99.90
18317;DHT22;9284;52.298;21.164;2023-06-10T20:19:44;17.60;99.90
18317;DHT22;9284;52.298;21.164;2023-06-10T20:22:56;17.60;1.00
18317;DHT22;9284;52.298;21.164;2023-06-10T20:26:34;17.40;1.00
18317;DHT22;9284;52.298;21.164;2023-06-10T20:30:24;17.10;1.00
18317;DHT22;9284;52.298;21.164;2023-06-10T20:32:44;17.10;1.00
18317;DHT22;9284;52.298;21.164;2023-06-10T20:35:29;17.10;1.00
18317;DHT22;9284;52.298;21.164;2023-06-10T20:38:56;17.10;1.10
18317;DHT22;9284;52.298;21.164;2023-06-10T20:41:45;17.20;95.50
18317;DHT22;9284;52.298;21.164;2023-06-10T20:45:17;16.90;99.90
18317;DHT22;9284;52.298;21.164;2023-06-10T20:48:49;16.90;99.90
18317;DHT22;9284;52.298;21.164;2023-06-10T20:51:51;16.80;99.90
18317;DHT22;9284;52.298;21.164;2023-06-10T20:55:12;16.70;99.90
18317;DHT22;9284;52.298;21.164;2023-06-10T20:58:01;16.80;99.90
18317;DHT22;9284;52.298;21.164;2023-06-10T21:01:19;16.80;1.00
18317;DHT22;9284;52.298;21.164;2023-06-10T21:04:40;16.80;1.00
18317;DHT22;9284;52.298;21.164;2023-06-10T21:07:29;16.80;99.90
18317;DHT22;9284;52.298;21.164;2023-06-10T21:10:52;16.90;99.90
18317;DHT22;9284;52.298;21.164;2023-06-10T21:14:31;16.90;1.00
18317;DHT22;9284;52.298;21.164;2023-06-10T21:18:34;17.00;1.00
18317;DHT22;9284;52.298;21.164;2023-06-10T21:21:13;17.00;1.00
18317;DHT22;9284;52.298;21.164;2023-06-10T21:24:13;17.00;1.00
18317;DHT22;9284;52.298;21.164;2023-06-10T21:31:31;17.00;1.00
18317;DHT22;9284;52.298;21.164;2023-06-10T21:34:41;16.90;99.90
18317;DHT22;9284;52.298;21.164;2023-06-10T21:51:41;16.80;99.90
18317;DHT22;9284;52.298;21.164;2023-06-10T21:54:44;16.80;99.90
18317;DHT22;9284;52.298;21.164;2023-06-10T22:01:06;16.70;99.90
18317;DHT22;9284;52.298;21.164;2023-06-10T22:04:16;16.60;99.90
18317;DHT22;9284;52.298;21.164;2023-06-10T22:11:22;16.60;99.90
18317;DHT22;9284;52.298;21.164;2023-06-10T22:14:31;16.60;99.90
18317;DHT22;9284;52.298;21.164;2023-06-10T22:17:58;16.60;99.90
18317;DHT22;9284;52.298;21.164;2023-06-10T22:21:09;16.50;99.90
18317;DHT22;9284;52.298;21.164;2023-06-10T22:39:05;16.60;49.70
18317;DHT22;9284;52.298;21.164;2023-06-10T22:41:56;16.50;30.00
18317;DHT22;9284;52.298;21.164;2023-06-10T22:45:17;16.50;17.80
18317;DHT22;9284;52.298;21.164;2023-06-10T22:48:19;16.40;6.80
18317;DHT22;9284;52.298;21.164;2023-06-10T22:51:58;16.40;1.00
18317;DHT22;9284;52.298;21.164;2023-06-10T22:56:41;16.40;1.00
18317;DHT22;9284;52.298;21.164;2023-06-10T22:58:20;16.30;1.00
18317;DHT22;9284;52.298;21.164;2023-06-10T23:01:43;16.30;1.00
18317;DHT22;9284;52.298;21.164;2023-06-10T23:05:11;16.20;1.00
18317;DHT22;9284;52.298;21.164;2023-06-10T23:08:31;16.30;1.00
18317;DHT22;9284;52.298;21.164;2023-06-10T23:18:45;16.00;1.00
18317;DHT22;9284;52.298;21.164;2023-06-10T23:21:40;15.90;1.00
18317;DHT22;9284;52.298;21.164;2023-06-10T23:28:36;15.80;1.00
18317;DHT22;9284;52.298;21.164;2023-06-10T23:32:22;15.80;1.00
18317;DHT22;9284;52.298;21.164;2023-06-10T23:39:12;15.70;1.00
18317;DHT22;9284;52.298;21.164;2023-06-10T23:42:35;15.60;1.00
18317;DHT22;9284;52.298;21.164;2023-06-10T23:53:40;15.40;1.00
18317;DHT22;9284;52.298;21.164;2023-06-10T23:56:47;15.40;1.00
